Weather at Singapore Changi Airport

Public forecast

Using degrees Celsius for public forecast. Weather courtesy of forecast.io.

Current aviation weather report (METAR) for Singapore Changi Airport

Retrieved 2022/05/23 08:30 UTC (24 minutes ago):

WSSS 230830Z 15007KT 110V210 9999 FEW020TCU BKN300 32/26 Q1005 NOSIG

Aviation forecast (TAF) for Singapore Changi Airport

Retrieved 2022/05/23 06:10 UTC (3 hours ago):

TAF WSSS 230500Z 2306/2412 19007KT 9999 FEW015 SCT020 TEMPO 2307/2310 3000 TSRA FEW012CB BKN015